Niantic, Illinois
Current Conditions -  °F | °C
As of 6:54 AM on Thursday 27 Nov 2014 (Local Time) from KDEC Reporting Station
Haze Haze  
Wind Chill: 14°   Ceiling: 5000
Heat Index: 25°   Visibility: 6mi
Dew Point: 20°   Wind: 12mph
Humidity: 81%   Direction: 310°NW
Pressure: 30.35"   Gusts: NA
Location:  39.85°N, 89.17°W
Report Text: KDEC 271254Z 31010KT 6SM HZ OVC050 M04/M07 A3035 RMK AO2 SLP288 T10391067
Loading
Personal Weather Stations






























Interactive Weather Map New forecast layout! Learn more

10-Day Weather Forecast

Advertisements
Track Severe Weather on mobile